Flight Track Log - Related Links

Times and Time Zones

All times are in EDT time to prevent confusion due to time zone crossing. See the UAL4434 flight status page for this flight to view local times or setup timezone preferences in your user account.

Time Position Orientation Groundspeed Altitude Reporting Facility
EDT Latitude Longitude Course Direction KTS MPH feet Rate Location/Type
Tue 02:12:43 PM 40.6500 -74.1833 48° Northeast 170 196 2,100  Level New York TRACON
Tue 02:13:38 PM 40.6000 -74.2333 217° Southwest 250 288 3,900 1,400 Climbing New York TRACON
Tue 02:14:00 PM 40.8966 -73.9351 21° North  Level FlightAware Approximate
Tue 02:14:43 PM 40.6667 -74.2833 330° Northwest 285 328 4,900  Level New York TRACON
Tue 02:15:00 PM 40.9630 -73.8536 37° Northeast  Level FlightAware Approximate
Tue 02:16:00 PM 41.0374 -73.7747 40° Northeast  Level FlightAware Approximate
Tue 02:16:15 PM 40.7217 -74.1817 54° Northeast 282 325 8,900  Level Boston Center
Tue 02:17:00 PM 41.1100 -73.6930 40° Northeast  Level FlightAware Approximate
Tue 02:17:14 PM 40.7753 -74.0872 53° Northeast 287 330 10,600  Level Boston Center
Tue 02:18:00 PM 41.1891 -73.6247 48° Northeast  Level FlightAware Approximate
Tue 02:18:15 PM 40.8353 -73.9792 54° Northeast 323 372 11,100  Level Boston Center
Tue 02:19:15 PM 40.9133 -73.8958 39° Northeast 347 399 12,000 800 Climbing Boston Center
Tue 02:20:15 PM 40.9978 -73.8069 38° Northeast 367 422 12,700 1,400 Climbing Boston Center
Tue 02:21:15 PM 41.0928 -73.7097 38° Northeast 386 444 14,800 2,000 Climbing Boston Center
Tue 02:22:15 PM 41.1686 -73.6342 37° Northeast 386 444 16,700 1,900 Climbing Boston Center
Tue 02:23:15 PM 41.2614 -73.5392 38° Northeast 386 444 18,600 1,850 Climbing Boston Center
Tue 02:24:15 PM 41.3453 -73.4686 32° Northeast 386 444 20,400 1,700 Climbing Boston Center
Tue 02:25:15 PM 41.4497 -73.4483 North 372 428 22,000 1,300 Climbing Boston Center
Tue 02:26:15 PM 41.5728 -73.4336 North 378 435 23,000 500 Climbing Boston Center
Tue 02:27:15 PM 41.6917 -73.4131 North 410 472 23,000  Level Boston Center
Tue 02:28:15 PM 41.8169 -73.3956 North 426 490 23,000  Level Boston Center
Tue 02:29:15 PM 41.9400 -73.3750 North 440 506 23,000  Level Boston Center
Tue 02:30:15 PM 42.0653 -73.3572 North 446 513 23,000 -50 Level Boston Center
Tue 02:31:15 PM 42.1864 -73.3367 North 446 513 22,900 -500 Descending Boston Center
Tue 02:32:15 PM 42.2869 -73.2511 32° Northeast 418 481 22,000 -900 Descending Boston Center
Tue 02:33:15 PM 42.3608 -73.1228 52° Northeast 408 470 21,100 -908 Descending Boston Center
Tue 02:34:14 PM 42.4242 -72.9969 56° Northeast 408 470 20,200 -958 Descending Boston Center
Tue 02:35:14 PM 42.4914 -72.8653 55° Northeast 408 470 19,200 -600 Descending Boston Center
Tue 02:36:14 PM 42.5583 -72.7417 54° Northeast 408 470 19,000 -99 Descending Boston Center
Tue 02:37:15 PM 42.6192 -72.6292 54° Northeast 408 470 19,000 -744 Level Boston Center
Tue 02:38:15 PM 42.6858 -72.5022 54° Northeast 408 470 17,500 -1,850 Descending Boston Center
Tue 02:39:15 PM 42.7483 -72.3836 54° Northeast 402 463 15,300 -2,350 Descending Boston Center
Tue 02:40:15 PM 42.7961 -72.2419 65° Northeast 375 432 12,800 -2,050 Descending Boston Center
Tue 02:41:15 PM 42.8167 -72.1089 78° East 364 419 11,200 -1,450 Descending Boston Center
Tue 02:42:15 PM 42.8706 -72.0122 53° Northeast 319 367 9,900 -1,350 Descending Boston Center
Tue 02:43:15 PM 42.9161 -71.9269 54° Northeast 291 335 8,500 -1,650 Descending Boston Center
Tue 02:44:15 PM 42.9489 -71.8331 64° Northeast 270 311 6,600 -1,800 Descending Boston Center
Tue 02:45:15 PM 42.9756 -71.7419 68° East 265 305 4,900 -1,412 Descending Boston Center
Tue 02:46:14 PM 42.9978 -71.6481 72° East 252 290 3,800 -1,100 Descending Boston Center
Tue 02:47:15 PM 43.0075 -71.5572 82° East 245 282 2,700 -1,082 Descending Boston Center

Login

Don't have an account? Register now (free) for customized features, flight alerts, and more!